Time;durP1;ratioP1;P1;durP2;ratioP2;P2;SDS_P1;SDS_P2;PMS_P1;PMS_P2;Temp;Humidity;BMP_temperature;BMP_pressure;BME280_temperature;BME280_humidity;BME280_pressure;Samples;Min_cycle;Max_cycle;Signal;HPM_P1;HPM_P2
2022/03/08 00:00:38;;;;;;;8.30;5.10;;;;;;;-0.14;60.20;102321.66;4990629;28;20033;-87
2022/03/08 00:03:05;;;;;;;8.67;4.97;;;;;;;-0.14;60.10;102323.34;4989990;28;20061;-87
2022/03/08 00:05:31;;;;;;;10.50;5.20;;;;;;;-0.17;60.25;102319.84;4990562;28;20489;-87
2022/03/08 00:07:56;;;;;;;8.40;4.80;;;;;;;-0.18;60.81;102320.66;4989759;28;20030;-87
2022/03/08 00:10:22;;;;;;;8.07;4.87;;;;;;;-0.21;60.22;102317.09;4989174;28;20042;-87
2022/03/08 00:12:49;;;;;;;7.43;4.63;;;;;;;-0.23;60.66;102316.13;4985996;28;20034;-87
2022/03/08 00:15:18;;;;;;;8.47;5.03;;;;;;;-0.23;60.90;102324.72;4989095;28;20025;-87
2022/03/08 00:17:44;;;;;;;9.13;4.77;;;;;;;-0.26;60.15;102319.47;4989376;28;20049;-87
2022/03/08 00:20:11;;;;;;;9.13;5.20;;;;;;;-0.27;60.16;102316.84;4985366;28;20034;-87
2022/03/08 00:22:38;;;;;;;9.50;5.50;;;;;;;-0.26;60.32;102322.00;4988232;28;20027;-87
2022/03/08 00:25:05;;;;;;;7.80;4.63;;;;;;;-0.28;59.83;102307.41;4990151;28;20556;-87
2022/03/08 00:27:31;;;;;;;10.00;5.00;;;;;;;-0.26;60.04;102310.94;4989342;28;20113;-87
2022/03/08 00:29:57;;;;;;;11.27;4.80;;;;;;;-0.28;59.57;102315.94;4988044;28;20177;-87
2022/03/08 00:32:23;;;;;;;7.60;4.53;;;;;;;-0.29;60.52;102313.34;4989187;28;20062;-87
2022/03/08 00:34:48;;;;;;;7.87;4.37;;;;;;;-0.33;60.45;102317.44;4989715;28;20033;-87
2022/03/08 00:37:13;;;;;;;10.50;5.30;;;;;;;-0.36;60.13;102307.94;4989501;28;20030;-87
2022/03/08 00:39:39;;;;;;;7.97;4.60;;;;;;;-0.37;60.40;102305.34;4990273;28;20462;-87
2022/03/08 00:42:04;;;;;;;7.70;4.83;;;;;;;-0.39;60.40;102301.84;4988954;28;20034;-86
2022/03/08 00:44:29;;;;;;;8.23;4.67;;;;;;;-0.40;60.06;102311.19;4988217;28;20367;-87
2022/03/08 00:46:55;;;;;;;7.50;4.27;;;;;;;-0.41;60.51;102314.53;4989837;28;20045;-87
2022/03/08 00:49:20;;;;;;;8.43;4.60;;;;;;;-0.43;60.33;102311.06;4989253;28;20038;-87
2022/03/08 00:51:45;;;;;;;8.33;4.80;;;;;;;-0.46;60.18;102306.69;4988134;28;20041;-87
2022/03/08 00:54:11;;;;;;;8.67;4.97;;;;;;;-0.49;60.08;102311.66;4989053;28;20502;-87
2022/03/08 00:56:36;;;;;;;8.83;4.50;;;;;;;-0.49;59.97;102309.09;4988730;28;20033;-86
2022/03/08 00:59:02;;;;;;;7.63;4.33;;;;;;;-0.50;59.68;102315.00;4988242;28;20022;-86
2022/03/08 01:01:27;;;;;;;7.23;4.40;;;;;;;-0.52;60.53;102313.22;4989370;28;20054;-87
2022/03/08 01:03:52;;;;;;;6.47;4.30;;;;;;;-0.55;60.02;102308.84;4988776;28;20480;-87
2022/03/08 01:06:18;;;;;;;6.13;3.67;;;;;;;-0.56;59.00;102307.09;4984773;28;20027;-87
2022/03/08 01:08:43;;;;;;;9.30;4.33;;;;;;;-0.55;60.00;102313.97;4985950;28;20030;-87
2022/03/08 01:11:08;;;;;;;7.60;4.50;;;;;;;-0.55;60.09;102305.41;4989020;28;20041;-87
2022/03/08 01:13:34;;;;;;;8.37;4.23;;;;;;;-0.55;59.99;102300.28;4988461;28;20053;-87
2022/03/08 01:15:59;;;;;;;7.50;4.30;;;;;;;-0.55;60.30;102296.06;4990471;28;20045;-87
2022/03/08 01:18:24;;;;;;;7.90;4.40;;;;;;;-0.56;60.05;102293.44;4989163;28;20041;-87
2022/03/08 01:20:50;;;;;;;7.27;4.40;;;;;;;-0.57;60.65;102302.78;4988171;28;20081;-87
2022/03/08 01:23:16;;;;;;;7.33;4.30;;;;;;;-0.60;60.63;102292.44;4986419;28;20066;-87
2022/03/08 01:25:41;;;;;;;6.80;4.30;;;;;;;-0.63;60.38;102292.28;4990025;28;20030;-87
2022/03/08 01:28:07;;;;;;;8.43;4.53;;;;;;;-0.65;60.53;102293.91;4991064;28;20038;-87
2022/03/08 01:30:33;;;;;;;7.90;4.70;;;;;;;-0.65;60.87;102281.13;4988153;28;20030;-87
2022/03/08 01:32:58;;;;;;;7.17;4.43;;;;;;;-0.65;59.58;102282.00;4989753;28;20046;-87
2022/03/08 01:35:24;;;;;;;8.30;4.40;;;;;;;-0.65;60.37;102278.56;4993640;28;20034;-87
2022/03/08 01:37:49;;;;;;;7.57;4.80;;;;;;;-0.66;59.55;102281.91;4986818;28;20109;-87
2022/03/08 01:40:15;;;;;;;8.20;4.50;;;;;;;-0.68;60.30;102276.75;4990933;28;20022;-87
2022/03/08 01:42:43;;;;;;;7.80;4.73;;;;;;;-0.68;59.71;102275.88;4991658;28;20062;-86
2022/03/08 01:45:09;;;;;;;7.93;4.60;;;;;;;-0.69;59.64;102269.03;4991074;28;20077;-87
2022/03/08 01:47:34;;;;;;;10.33;4.70;;;;;;;-0.72;60.56;102267.19;4989212;28;20030;-87
2022/03/08 01:50:00;;;;;;;9.27;4.60;;;;;;;-0.74;60.43;102258.59;4990947;28;20081;-87
2022/03/08 01:52:27;;;;;;;7.37;4.17;;;;;;;-0.78;60.43;102257.59;4992594;28;20129;-87
2022/03/08 01:54:54;;;;;;;9.03;4.43;;;;;;;-0.80;60.57;102251.53;4991550;28;20041;-87
2022/03/08 01:57:19;;;;;;;7.93;4.80;;;;;;;-0.81;60.56;102254.03;4991474;28;20031;-87
2022/03/08 01:59:45;;;;;;;7.47;4.50;;;;;;;-0.83;60.41;102253.94;4992487;28;20093;-87
2022/03/08 02:02:14;;;;;;;8.73;4.90;;;;;;;-0.84;60.46;102253.88;4991835;28;20041;-87
2022/03/08 02:04:39;;;;;;;7.60;4.43;;;;;;;-0.85;60.99;102247.03;4992648;28;20451;-87
2022/03/08 02:07:04;;;;;;;9.13;4.60;;;;;;;-0.86;60.57;102242.72;4991016;28;20061;-87
2022/03/08 02:09:30;;;;;;;7.10;4.27;;;;;;;-0.89;60.26;102235.81;4990609;28;20026;-87
2022/03/08 02:11:55;;;;;;;9.13;4.80;;;;;;;-0.91;59.90;102234.88;4992089;28;20061;-87
2022/03/08 02:14:20;;;;;;;7.30;4.43;;;;;;;-0.92;61.02;102235.66;4989935;28;20040;-87
2022/03/08 02:16:46;;;;;;;7.73;4.90;;;;;;;-0.93;60.51;102226.25;4984767;28;20465;-86
2022/03/08 02:19:15;;;;;;;8.20;4.60;;;;;;;-0.94;60.70;102229.63;4988575;28;20018;-88
2022/03/08 02:21:41;;;;;;;8.07;4.83;;;;;;;-0.96;59.99;102221.91;4990000;28;20037;-87
2022/03/08 02:24:06;;;;;;;7.10;4.13;;;;;;;-0.98;60.61;102223.50;4990681;28;20030;-87
2022/03/08 02:26:32;;;;;;;6.67;4.20;;;;;;;-1.00;60.77;102219.13;4984026;28;20110;-87
2022/03/08 02:29:03;;;;;;;7.33;4.23;;;;;;;-1.01;60.85;102219.91;4983379;28;20053;-87
2022/03/08 02:31:29;;;;;;;8.77;4.68;;;;;;;-1.01;61.49;102219.91;4991401;28;20034;-86
2022/03/08 02:33:57;;;;;;;6.80;4.30;;;;;;;-1.04;60.48;102219.81;4987066;28;20053;-87
2022/03/08 02:36:23;;;;;;;7.13;4.50;;;;;;;-1.05;61.29;102215.50;4990577;28;20080;-87
2022/03/08 02:38:49;;;;;;;7.07;4.47;;;;;;;-1.04;60.90;102214.69;4990538;28;20026;-87
2022/03/08 02:41:14;;;;;;;7.83;4.97;;;;;;;-1.09;61.04;102215.38;4991200;28;20029;-87
2022/03/08 02:43:39;;;;;;;9.07;4.47;;;;;;;-1.08;61.34;102216.22;4985741;28;20045;-87
2022/03/08 02:46:05;;;;;;;8.00;4.43;;;;;;;-1.07;60.87;102221.41;4993195;28;20109;-87
2022/03/08 02:48:30;;;;;;;7.57;4.77;;;;;;;-1.09;60.75;102212.81;4992624;28;20034;-87
2022/03/08 02:50:56;;;;;;;6.33;3.90;;;;;;;-1.08;61.20;102214.56;4986123;28;20037;-87
2022/03/08 02:53:22;;;;;;;7.50;4.40;;;;;;;-1.09;61.00;102215.38;4990347;28;20029;-87
2022/03/08 02:55:47;;;;;;;7.97;4.50;;;;;;;-1.10;62.34;102208.50;4990367;28;20022;-86
2022/03/08 02:58:13;;;;;;;8.37;4.67;;;;;;;-1.10;61.73;102211.06;4991970;28;20395;-87
2022/03/08 03:00:39;;;;;;;7.60;3.90;;;;;;;-1.09;60.75;102205.16;4985381;28;20483;-87
2022/03/08 03:03:05;;;;;;;6.60;4.00;;;;;;;-1.08;61.42;102195.78;4986246;28;20037;-87
2022/03/08 03:05:30;;;;;;;7.07;4.13;;;;;;;-1.07;61.14;102185.66;4985713;28;20492;-88
2022/03/08 03:07:56;;;;;;;7.03;4.37;;;;;;;-1.03;60.83;102175.59;4989710;28;20116;-87
2022/03/08 03:10:23;;;;;;;6.87;4.50;;;;;;;-1.02;60.96;102170.53;4990947;28;20019;-87
2022/03/08 03:12:50;;;;;;;7.43;4.60;;;;;;;-0.99;60.80;102174.88;4990094;28;20394;-88
2022/03/08 03:15:17;;;;;;;8.63;4.73;;;;;;;-0.98;60.44;102172.41;4991234;28;20533;-87
2022/03/08 03:17:43;;;;;;;8.03;4.37;;;;;;;-0.96;60.76;102162.25;4988958;28;20046;-86
2022/03/08 03:20:10;;;;;;;7.97;4.53;;;;;;;-0.97;60.98;102168.16;4989274;28;20101;-87
2022/03/08 03:22:36;;;;;;;6.40;4.20;;;;;;;-0.99;60.93;102165.56;4989439;28;20033;-87
2022/03/08 03:25:02;;;;;;;7.70;4.27;;;;;;;-0.99;60.97;102164.66;4990920;28;20064;-87
2022/03/08 03:27:28;;;;;;;7.53;4.50;;;;;;;-1.00;61.05;102162.91;4990377;28;20025;-87
2022/03/08 03:29:53;;;;;;;7.73;4.43;;;;;;;-1.02;61.21;102154.31;4989688;28;20030;-87
2022/03/08 03:32:19;;;;;;;8.37;4.67;;;;;;;-1.05;61.21;102152.50;4990616;28;20433;-87
2022/03/08 03:34:45;;;;;;;7.53;4.07;;;;;;;-1.05;60.95;102151.66;4990735;28;20157;-87
2022/03/08 03:37:10;;;;;;;9.47;4.90;;;;;;;-1.06;61.12;102158.41;4989520;28;20061;-86
2022/03/08 03:39:35;;;;;;;8.63;4.63;;;;;;;-1.07;60.85;102162.69;4989941;28;20023;-87
2022/03/08 03:42:00;;;;;;;9.77;4.53;;;;;;;-1.07;61.20;102157.56;4990410;28;20452;-87
2022/03/08 03:44:26;;;;;;;7.47;4.30;;;;;;;-1.05;61.03;102161.88;4990390;28;20061;-87
2022/03/08 03:46:52;;;;;;;8.30;4.93;;;;;;;-1.07;60.95;102161.78;4990082;28;20473;-87
2022/03/08 03:49:17;;;;;;;7.27;4.60;;;;;;;-1.07;60.95;102165.22;4991137;28;20026;-87
2022/03/08 03:51:43;;;;;;;8.20;4.43;;;;;;;-1.08;61.84;102165.16;4990186;28;20026;-87
2022/03/08 03:54:08;;;;;;;7.57;4.37;;;;;;;-1.08;61.63;102165.16;4985742;28;20393;-87
2022/03/08 03:56:33;;;;;;;7.53;4.50;;;;;;;-1.09;61.91;102177.06;4987719;28;20042;-87
2022/03/08 03:58:59;;;;;;;9.90;4.27;;;;;;;-1.09;61.37;102169.38;4989797;28;20359;-87
2022/03/08 04:01:25;;;;;;;8.43;4.73;;;;;;;-1.10;62.09;102161.66;4989968;28;20414;-87
2022/03/08 04:03:50;;;;;;;7.13;4.63;;;;;;;-1.11;61.61;102165.88;4989602;28;20504;-87
2022/03/08 04:06:15;;;;;;;8.50;4.77;;;;;;;-1.11;61.38;102165.88;4989559;28;20026;-87
2022/03/08 04:08:41;;;;;;;7.90;4.80;;;;;;;-1.11;62.05;102168.44;4986528;28;20015;-87
2022/03/08 04:11:06;;;;;;;8.80;4.67;;;;;;;-1.11;61.38;102165.88;4989313;28;20492;-87
2022/03/08 04:13:31;;;;;;;10.13;4.63;;;;;;;-1.14;61.85;102160.66;4989036;28;20033;-86
2022/03/08 04:15:56;;;;;;;7.23;4.57;;;;;;;-1.13;61.29;102162.41;4991281;28;20042;-87
2022/03/08 04:18:22;;;;;;;7.60;4.50;;;;;;;-1.14;62.00;102155.53;4989956;28;20046;-87
2022/03/08 04:20:47;;;;;;;8.70;5.17;;;;;;;-1.16;61.95;102152.03;4982539;28;20026;-87
2022/03/08 04:23:12;;;;;;;6.60;4.37;;;;;;;-1.15;62.12;102152.94;4990411;28;20030;-87
2022/03/08 04:25:38;;;;;;;7.37;4.33;;;;;;;-1.15;61.89;102150.38;4987354;28;20034;-87
2022/03/08 04:28:04;;;;;;;7.00;4.50;;;;;;;-1.17;61.50;102150.28;4988823;28;20027;-87
2022/03/08 04:30:30;;;;;;;8.10;4.47;;;;;;;-1.17;61.44;102147.72;4989639;28;20037;-87
2022/03/08 04:32:55;;;;;;;7.47;4.53;;;;;;;-1.18;61.54;102151.09;4988246;28;20038;-87
2022/03/08 04:35:21;;;;;;;8.13;4.40;;;;;;;-1.21;62.08;102145.88;4989581;28;20030;-87
2022/03/08 04:37:46;;;;;;;8.07;4.67;;;;;;;-1.22;62.13;102150.09;4987912;28;20037;-87
2022/03/08 04:40:12;;;;;;;8.63;5.50;;;;;;;-1.24;62.34;102154.25;4988838;28;20085;-87
2022/03/08 04:42:39;;;;;;;7.23;4.57;;;;;;;-1.26;62.25;102150.75;4989113;28;20185;-87
2022/03/08 04:45:05;;;;;;;7.73;4.40;;;;;;;-1.27;62.33;102153.25;4986923;28;20069;-87
2022/03/08 04:47:30;;;;;;;8.33;5.07;;;;;;;-1.30;62.46;102148.00;4988233;28;20022;-87
2022/03/08 04:49:56;;;;;;;7.00;4.40;;;;;;;-1.29;61.88;102147.22;4989569;28;20034;-87
2022/03/08 04:52:21;;;;;;;7.90;4.80;;;;;;;-1.30;62.74;102146.34;4990061;28;20022;-87
2022/03/08 04:54:46;;;;;;;9.00;4.70;;;;;;;-1.30;62.19;102148.00;4987255;28;20077;-87
2022/03/08 04:57:12;;;;;;;7.80;4.77;;;;;;;-1.31;61.90;102148.81;4988782;28;20038;-88
2022/03/08 04:59:37;;;;;;;8.40;4.70;;;;;;;-1.32;61.93;102150.50;4989276;28;20021;-87
2022/03/08 05:02:03;;;;;;;7.43;4.57;;;;;;;-1.32;62.16;102152.16;4992586;28;20462;-87
2022/03/08 05:04:28;;;;;;;8.07;4.70;;;;;;;-1.33;62.48;102146.22;4986479;28;20022;-86
2022/03/08 05:06:53;;;;;;;8.87;4.83;;;;;;;-1.34;62.49;102149.56;4992046;28;20022;-87
2022/03/08 05:09:19;;;;;;;8.07;4.80;;;;;;;-1.37;62.51;102144.31;4994688;28;20027;-87
2022/03/08 05:11:44;;;;;;;7.70;4.70;;;;;;;-1.38;62.78;102146.00;4989431;28;20022;-87
2022/03/08 05:14:10;;;;;;;8.00;4.97;;;;;;;-1.38;62.03;102142.56;4992666;28;20100;-87
2022/03/08 05:16:35;;;;;;;7.93;4.77;;;;;;;-1.41;62.56;102140.75;4995010;28;20054;-87
2022/03/08 05:19:00;;;;;;;7.23;4.67;;;;;;;-1.43;62.24;102142.38;4993341;28;20027;-86
2022/03/08 05:21:26;;;;;;;8.20;5.00;;;;;;;-1.43;62.48;102137.25;4991161;28;20066;-87
2022/03/08 05:23:51;;;;;;;7.67;4.60;;;;;;;-1.44;62.15;102138.06;4992159;28;20037;-87
2022/03/08 05:26:16;;;;;;;8.57;4.80;;;;;;;-1.46;62.59;102142.22;4993523;28;20022;-87
2022/03/08 05:28:42;;;;;;;7.70;4.60;;;;;;;-1.48;63.19;102141.28;4989353;28;20030;-87
2022/03/08 05:31:09;;;;;;;9.57;5.10;;;;;;;-1.50;62.42;102134.38;4992254;28;20018;-87
2022/03/08 05:33:34;;;;;;;10.20;5.30;;;;;;;-1.52;62.39;102134.28;4991970;28;20387;-87
2022/03/08 05:36:00;;;;;;;7.87;4.60;;;;;;;-1.52;62.87;102134.28;4993748;28;20041;-87
2022/03/08 05:38:25;;;;;;;10.83;4.73;;;;;;;-1.54;62.73;102130.81;4991163;28;20030;-87
2022/03/08 05:40:51;;;;;;;10.33;5.00;;;;;;;-1.55;63.54;102136.72;4992672;28;20089;-87
2022/03/08 05:43:17;;;;;;;8.47;4.73;;;;;;;-1.56;62.77;102133.28;4990012;28;20034;-88
2022/03/08 05:45:42;;;;;;;8.67;4.90;;;;;;;-1.57;62.62;102136.63;4985624;28;20045;-87
2022/03/08 05:48:10;;;;;;;9.13;5.27;;;;;;;-1.58;63.51;102129.78;4989309;28;20405;-86
2022/03/08 05:50:35;;;;;;;9.27;4.90;;;;;;;-1.59;62.95;102130.59;4992770;28;20157;-87
2022/03/08 05:53:00;;;;;;;7.63;4.70;;;;;;;-1.61;62.82;102127.09;4986613;28;20181;-87
2022/03/08 05:55:26;;;;;;;7.67;4.77;;;;;;;-1.63;62.83;102127.81;4988912;28;20940;-87
2022/03/08 05:57:51;;;;;;;8.27;5.13;;;;;;;-1.64;63.54;102133.72;4992119;28;20026;-87
2022/03/08 06:00:16;;;;;;;9.20;5.40;;;;;;;-1.68;62.71;102138.69;4992080;28;20030;-87
2022/03/08 06:02:42;;;;;;;8.33;4.73;;;;;;;-1.69;63.24;102129.28;4988832;28;20522;-87
2022/03/08 06:05:08;;;;;;;9.33;5.50;;;;;;;-1.68;62.98;102135.28;4990390;28;20034;-86
2022/03/08 06:07:33;;;;;;;8.53;5.17;;;;;;;-1.69;63.23;102139.50;4990647;28;20174;-87
2022/03/08 06:09:59;;;;;;;8.40;5.40;;;;;;;-1.69;63.33;102141.19;4991075;28;20031;-87
2022/03/08 06:12:25;;;;;;;7.73;5.07;;;;;;;-1.70;63.84;102142.84;4989431;28;20397;-87
2022/03/08 06:14:50;;;;;;;9.77;5.50;;;;;;;-1.71;63.14;102142.78;4991878;28;20022;-89
2022/03/08 06:17:15;;;;;;;9.57;4.80;;;;;;;-1.71;63.15;102138.53;4991829;28;20713;-87
2022/03/08 06:19:40;;;;;;;9.10;5.33;;;;;;;-1.70;63.48;102147.09;4991734;28;20057;-87
2022/03/08 06:22:06;;;;;;;9.13;5.17;;;;;;;-1.70;63.39;102142.00;4990279;28;20062;-87
2022/03/08 06:24:31;;;;;;;9.73;5.47;;;;;;;-1.69;63.37;102144.59;4991208;28;20026;-87
2022/03/08 06:26:57;;;;;;;10.87;5.67;;;;;;;-1.70;63.95;102147.94;4991610;28;20507;-87
2022/03/08 06:29:23;;;;;;;8.37;5.10;;;;;;;-1.68;63.54;102145.50;4989775;28;20045;-87
2022/03/08 06:31:48;;;;;;;8.43;5.10;;;;;;;-1.64;63.48;102141.38;4989353;28;20030;-87
2022/03/08 06:34:13;;;;;;;9.17;5.17;;;;;;;-1.62;64.00;102138.09;4989068;28;20054;-88
2022/03/08 06:36:39;;;;;;;8.37;5.07;;;;;;;-1.59;63.71;102143.34;4990562;28;20027;-87
2022/03/08 06:39:05;;;;;;;8.40;5.10;;;;;;;-1.56;63.15;102147.72;4988084;28;20034;-87
2022/03/08 06:41:32;;;;;;;11.30;5.70;;;;;;;-1.54;63.42;102143.56;4988696;28;20397;-87
2022/03/08 06:43:58;;;;;;;9.37;5.47;;;;;;;-1.49;63.29;102142.06;4984688;28;20026;-87
2022/03/08 06:46:23;;;;;;;9.17;5.03;;;;;;;-1.46;63.90;102142.22;4991477;28;20026;-87
2022/03/08 06:48:49;;;;;;;9.40;5.40;;;;;;;-1.42;64.05;102141.56;4991216;28;20034;-87
2022/03/08 06:51:14;;;;;;;11.57;5.60;;;;;;;-1.39;63.39;102139.16;4991154;28;20034;-87
2022/03/08 06:53:40;;;;;;;10.37;5.30;;;;;;;-1.33;63.86;102135.09;4985931;28;20033;-87
2022/03/08 06:56:05;;;;;;;8.93;5.50;;;;;;;-1.30;63.36;102133.59;4991187;28;20385;-87
2022/03/08 06:58:31;;;;;;;10.10;5.40;;;;;;;-1.25;63.03;102124.41;4992317;28;20030;-87
2022/03/08 07:00:56;;;;;;;8.97;5.33;;;;;;;-1.20;63.03;102129.75;4992688;28;20026;-87
2022/03/08 07:03:21;;;;;;;9.70;5.33;;;;;;;-1.14;63.94;102135.09;4990827;28;20026;-87
2022/03/08 07:05:47;;;;;;;8.90;4.87;;;;;;;-1.11;63.07;102140.34;4990831;28;20022;-87
2022/03/08 07:08:12;;;;;;;9.73;5.07;;;;;;;-1.03;63.15;102138.13;4991496;28;20095;-87
2022/03/08 07:10:38;;;;;;;8.47;4.90;;;;;;;-0.96;62.84;102141.81;4992074;28;20034;-87
2022/03/08 07:13:03;;;;;;;8.67;5.37;;;;;;;-0.91;63.21;102140.34;4990740;28;20096;-87
2022/03/08 07:15:28;;;;;;;9.37;5.43;;;;;;;-0.84;63.04;102137.22;4990913;28;20045;-87
2022/03/08 07:17:54;;;;;;;10.10;5.60;;;;;;;-0.75;62.40;102135.88;4990938;28;20030;-87
2022/03/08 07:20:19;;;;;;;8.67;5.63;;;;;;;-0.68;62.07;102135.31;4990637;28;20023;-87
2022/03/08 07:22:44;;;;;;;9.60;5.33;;;;;;;-0.63;62.16;102133.81;4990578;28;20045;-87
2022/03/08 07:25:11;;;;;;;10.47;5.87;;;;;;;-0.56;61.80;102135.84;4989710;28;20124;-90
2022/03/08 07:27:36;;;;;;;9.70;5.77;;;;;;;-0.49;61.81;102134.41;4987541;28;20477;-87
2022/03/08 07:30:04;;;;;;;8.90;5.33;;;;;;;-0.41;62.16;102140.69;4990332;28;20058;-87
2022/03/08 07:32:30;;;;;;;10.53;5.90;;;;;;;-0.35;61.96;102142.63;4989873;28;20045;-88
2022/03/08 07:34:55;;;;;;;12.87;6.30;;;;;;;-0.27;61.54;102145.50;4988774;28;20037;-86
2022/03/08 07:37:20;;;;;;;9.40;5.93;;;;;;;-0.21;60.14;102145.72;4982279;28;20033;-87
2022/03/08 07:39:46;;;;;;;9.70;5.70;;;;;;;-0.14;60.77;102149.41;4988981;28;20031;-87
2022/03/08 07:42:11;;;;;;;10.67;6.47;;;;;;;-0.06;60.57;102140.34;4986514;28;20037;-87
2022/03/08 07:44:37;;;;;;;9.43;6.23;;;;;;;0.01;61.26;102144.88;4989868;28;20029;-87
2022/03/08 07:47:03;;;;;;;9.03;5.50;;;;;;;0.08;60.07;102144.31;4991586;28;20034;-87
2022/03/08 07:49:28;;;;;;;10.33;6.20;;;;;;;0.15;60.26;102142.88;4992207;28;20030;-87
2022/03/08 07:51:54;;;;;;;9.07;5.63;;;;;;;0.21;58.84;102131.97;4989495;28;20048;-87
2022/03/08 07:54:19;;;;;;;9.90;6.10;;;;;;;0.29;59.98;102135.72;4991686;28;20389;-86
2022/03/08 07:56:44;;;;;;;11.03;6.00;;;;;;;0.37;59.76;102133.44;4991785;28;20500;-87
2022/03/08 07:59:10;;;;;;;10.17;5.77;;;;;;;0.43;59.39;102124.31;4992460;28;20092;-88
2022/03/08 08:01:35;;;;;;;8.90;5.87;;;;;;;0.49;58.60;102118.53;4990528;28;20370;-87
2022/03/08 08:04:00;;;;;;;10.43;6.00;;;;;;;0.58;58.93;102120.56;4992335;28;20022;-87
2022/03/08 08:06:26;;;;;;;9.80;6.17;;;;;;;0.64;59.12;102128.47;4992667;28;20034;-87
2022/03/08 08:08:51;;;;;;;9.37;6.03;;;;;;;0.70;57.84;102128.66;4992559;28;20508;-86
2022/03/08 08:11:16;;;;;;;10.70;6.73;;;;;;;0.76;57.90;102133.16;4979926;28;20041;-87
2022/03/08 08:13:42;;;;;;;9.97;5.80;;;;;;;0.83;58.35;102134.25;4991462;28;20132;-87
2022/03/08 08:16:07;;;;;;;10.03;6.03;;;;;;;0.88;58.45;102132.69;4992121;28;20046;-87
2022/03/08 08:18:32;;;;;;;9.27;5.40;;;;;;;0.95;57.70;102136.34;4992281;28;20049;-87
2022/03/08 08:20:59;;;;;;;9.33;5.90;;;;;;;0.99;58.14;102131.41;4991780;28;20018;-87
2022/03/08 08:23:24;;;;;;;9.80;6.17;;;;;;;1.08;57.92;102129.97;4990795;28;20034;-86
2022/03/08 08:25:50;;;;;;;11.40;5.90;;;;;;;1.13;57.63;102126.72;4991729;28;20052;-87
2022/03/08 08:28:15;;;;;;;10.40;6.10;;;;;;;1.21;57.55;102130.44;4992215;28;20034;-86
2022/03/08 08:30:41;;;;;;;10.23;5.80;;;;;;;1.30;56.97;102132.44;4991984;28;20107;-87
2022/03/08 08:33:06;;;;;;;9.57;5.83;;;;;;;1.35;57.83;102133.47;4990968;28;20517;-86
2022/03/08 08:35:32;;;;;;;8.43;5.70;;;;;;;1.43;57.11;102128.59;4986137;28;20022;-87
2022/03/08 08:37:57;;;;;;;9.00;5.53;;;;;;;1.51;56.05;102131.41;4991582;28;20089;-86
2022/03/08 08:40:22;;;;;;;9.93;6.00;;;;;;;1.59;56.05;102140.22;4991525;28;20030;-86
2022/03/08 08:42:48;;;;;;;9.90;5.70;;;;;;;1.67;55.05;102138.78;4991756;28;20398;-86
2022/03/08 08:45:14;;;;;;;10.33;5.33;;;;;;;1.75;55.58;102140.69;4990706;28;20030;-87
2022/03/08 08:47:39;;;;;;;7.73;4.97;;;;;;;1.85;55.28;102131.59;4992272;28;20054;-87
2022/03/08 08:50:05;;;;;;;10.17;5.60;;;;;;;1.93;54.70;102130.16;4992962;28;20085;-87
2022/03/08 08:52:30;;;;;;;8.73;5.67;;;;;;;2.02;55.14;102132.13;4981445;28;20045;-87
2022/03/08 08:54:56;;;;;;;8.30;5.43;;;;;;;2.09;53.50;102131.47;4992063;28;20066;-86
2022/03/08 08:57:21;;;;;;;9.10;5.73;;;;;;;2.16;54.19;102132.53;4992166;28;20441;-87
2022/03/08 08:59:46;;;;;;;8.53;5.40;;;;;;;2.22;53.59;102132.72;4979532;28;20533;-87
2022/03/08 09:02:12;;;;;;;9.87;5.23;;;;;;;2.31;54.92;102132.13;4991980;28;20030;-87
2022/03/08 09:04:37;;;;;;;12.33;5.43;;;;;;;2.40;53.70;102135.84;4992093;28;20066;-87
2022/03/08 09:07:02;;;;;;;9.03;5.63;;;;;;;2.46;52.11;102122.31;4975313;28;20026;-87
2022/03/08 09:09:28;;;;;;;9.83;5.73;;;;;;;2.52;52.40;102119.03;4989834;28;20484;-87
2022/03/08 09:11:53;;;;;;;9.27;5.53;;;;;;;2.58;52.10;102122.63;4991224;28;20450;-87
2022/03/08 09:14:18;;;;;;;9.80;5.47;;;;;;;2.66;52.61;102119.44;4987951;28;20026;-87
2022/03/08 09:16:44;;;;;;;7.63;5.20;;;;;;;2.71;54.75;102115.28;4988730;28;20026;-87
2022/03/08 09:19:10;;;;;;;9.37;5.50;;;;;;;2.76;52.24;102112.84;4991645;28;20034;-88
2022/03/08 09:21:36;;;;;;;9.67;5.17;;;;;;;2.80;51.63;102102.69;4991589;28;20026;-87
2022/03/08 09:24:02;;;;;;;8.67;5.40;;;;;;;2.84;51.14;102114.78;4991884;28;20037;-87
2022/03/08 09:26:28;;;;;;;11.33;5.63;;;;;;;2.91;52.33;102109.78;4991497;28;20061;-87
2022/03/08 09:28:54;;;;;;;7.80;5.10;;;;;;;2.94;51.39;102097.03;4991373;28;20026;-87
2022/03/08 09:31:19;;;;;;;7.33;4.93;;;;;;;3.00;53.92;102089.47;4991163;28;20046;-86
2022/03/08 09:33:45;;;;;;;8.97;5.33;;;;;;;3.08;50.60;102097.41;4991223;28;20489;-87
2022/03/08 09:36:10;;;;;;;11.60;5.40;;;;;;;3.16;50.54;102091.63;4990598;28;20426;-87
2022/03/08 09:38:37;;;;;;;9.43;4.87;;;;;;;3.24;49.83;102083.22;4991496;28;20089;-87
2022/03/08 09:41:03;;;;;;;9.10;5.10;;;;;;;3.29;49.71;102081.63;4988275;28;20167;-87
2022/03/08 09:43:29;;;;;;;9.33;5.43;;;;;;;3.36;49.10;102083.53;4991417;28;20483;-86
2022/03/08 09:45:55;;;;;;;8.73;5.50;;;;;;;3.39;49.22;102088.75;4989630;28;20509;-87
2022/03/08 09:48:21;;;;;;;13.40;5.60;;;;;;;3.43;49.81;102079.41;4993428;28;20121;-87
2022/03/08 09:50:46;;;;;;;9.70;5.50;;;;;;;3.45;48.92;102070.88;4992419;28;20022;-87
2022/03/08 09:53:12;;;;;;;8.80;5.30;;;;;;;3.49;50.21;102070.13;4992876;28;20427;-87
2022/03/08 09:55:38;;;;;;;8.70;5.30;;;;;;;3.55;49.30;102069.38;4993576;28;20026;-87
2022/03/08 09:58:04;;;;;;;8.37;5.10;;;;;;;3.63;52.70;102072.13;4987072;28;20030;-87
2022/03/08 10:00:31;;;;;;;7.73;4.93;;;;;;;3.68;49.42;102069.66;4991835;28;20033;-87
2022/03/08 10:02:58;;;;;;;8.93;5.37;;;;;;;3.71;49.13;102060.31;4988888;28;20030;-87
2022/03/08 10:05:40;;;;;;;11.07;5.27;;;;;;;3.77;49.91;102067.31;4993096;28;20033;-87
2022/03/08 10:08:13;;;;;;;6.50;4.53;;;;;;;3.83;48.77;102069.16;4993022;28;20494;-86
2022/03/08 10:10:47;;;;;;;9.47;5.67;;;;;;;3.89;49.66;102053.84;4992198;28;20030;-87
2022/03/08 10:13:13;;;;;;;8.37;5.70;;;;;;;3.96;48.44;102060.84;4992535;28;20437;-87
2022/03/08 10:15:39;;;;;;;10.37;5.80;;;;;;;4.02;48.56;102044.66;4992052;28;20057;-87
2022/03/08 10:18:06;;;;;;;8.67;5.17;;;;;;;4.07;46.85;102051.66;4991467;28;20478;-87
2022/03/08 10:20:33;;;;;;;10.33;4.97;;;;;;;4.12;48.40;102040.56;4992021;28;20054;-87
2022/03/08 10:22:59;;;;;;;9.30;5.07;;;;;;;4.17;48.20;102045.00;4992466;28;20022;-87
2022/03/08 10:25:28;;;;;;;7.83;5.27;;;;;;;4.25;48.25;102037.41;4992645;28;20080;-86
2022/03/08 10:27:53;;;;;;;7.07;4.97;;;;;;;4.32;47.62;102038.41;4991821;28;20474;-87
2022/03/08 10:30:19;;;;;;;9.75;5.10;;;;;;;4.37;48.38;102037.66;4991387;28;20037;-87
2022/03/08 10:32:46;;;;;;;10.83;5.47;;;;;;;4.45;46.59;102044.63;4995344;28;20087;-86
2022/03/08 10:35:21;;;;;;;8.07;4.93;;;;;;;4.52;46.11;102038.78;4993370;28;20034;-87
2022/03/08 10:37:47;;;;;;;7.53;4.97;;;;;;;4.55;45.76;102031.97;4991137;28;20046;-87
2022/03/08 10:40:13;;;;;;;8.73;5.10;;;;;;;4.62;46.06;102032.94;4991737;28;20026;-87
2022/03/08 10:42:40;;;;;;;9.10;5.50;;;;;;;4.66;46.79;102034.75;4991820;28;20073;-87
2022/03/08 10:45:09;;;;;;;8.40;4.88;;;;;;;4.72;45.11;102026.25;4990766;28;20494;-87
2022/03/08 10:47:41;;;;;;;12.85;5.30;;;;;;;4.80;47.39;102026.38;4992379;28;20459;-86
2022/03/08 10:50:07;;;;;;;9.55;4.93;;;;;;;4.85;45.77;102022.19;4992676;28;20118;-87
2022/03/08 10:52:35;;;;;;;10.02;4.80;;;;;;;4.90;45.17;102022.25;4992086;28;20092;-87
2022/03/08 10:55:16;;;;;;;9.02;4.55;;;;;;;4.95;45.00;102018.03;4992136;28;20049;-87
2022/03/08 10:57:49;;;;;;;8.95;4.30;;;;;;;5.03;45.13;102010.44;4987245;28;20038;-86
2022/03/08 11:00:16;;;;;;;10.50;4.80;;;;;;;5.09;43.95;102013.97;4991950;28;20030;-86
2022/03/08 11:02:56;;;;;;;6.13;4.10;;;;;;;5.13;45.04;101999.41;4993317;28;20053;-86
2022/03/08 11:05:24;;;;;;;8.95;4.00;;;;;;;5.20;44.14;102000.41;4993206;28;20113;-86
2022/03/08 11:07:51;;;;;;;8.07;4.30;;;;;;;5.28;43.44;101999.66;4992324;28;20030;-87
2022/03/08 11:10:20;;;;;;;6.20;3.63;;;;;;;5.34;44.09;102008.31;4992476;28;20038;-86
2022/03/08 11:12:46;;;;;;;7.53;3.92;;;;;;;5.41;45.21;101994.69;4990531;28;20395;-87
2022/03/08 11:15:14;;;;;;;10.98;4.28;;;;;;;5.45;42.87;101991.31;4991416;28;20118;-87
2022/03/08 11:17:42;;;;;;;6.65;3.78;;;;;;;5.52;42.26;102003.44;4990031;28;20363;-87
2022/03/08 11:20:09;;;;;;;5.63;3.50;;;;;;;5.58;41.81;101994.91;4990567;28;20485;-87